Terminal Aerodrome Forecast
Issued by NWS

Home | Current Version | Previous Version | Text Only | Print | Product List | Glossary On
Versions: 1 2 3 4 5 6 7 8 9 10 11 12 13 14 15 16 17 18 19 20 21 22 23 24 25 26 27
000
FTUS43 KMKX 171136
TAFUES
TAF
KUES 171136Z 1712/1812 01004KT 2SM BR VCSH OVC003
     FM171300 36004KT 1/2SM FG VCSH OVC003
     FM171800 30004KT 1SM BR OVC003
     FM172200 30005KT 3SM BR VCSH OVC003
     FM180000 30004KT 4SM BR OVC003
     FM180100 29004KT P6SM OVC003=

USA.gov is the U.S. government's official web portal to all federal, state and local government web resources and services.